Tremelo, Belgium
Current Conditions -  °F | °C
As of 6:50 PM on Saturday 20 Dec 2014 (Local Time) from EBBR Reporting Station
Broken Clouds Broken Clouds  
Wind Chill: 38°   Ceiling: 4500
Heat Index: 45°   Visibility: 6mi
Dew Point: 37°   Wind: 14mph
Humidity: 76%   Direction: 270°W
Pressure: 30.3"   Gusts: NA
Location:  50.99°N, 4.71°E
Report Text: EBBR 201750Z 27012KT 9999 FEW030 BKN045 07/03 Q1026 NOSIG
Loading
Personal Weather Stations






























Interactive Weather Map New forecast layout! Learn more

10-Day Weather Forecast

Advertisements
Track Severe Weather on mobile